Terminal Aerodrome Forecast
Issued by NWS

Home | Current Version | Previous Version | Text Only | Print | Product List | Glossary On
Versions: 1 2 3 4 5 6 7 8 9 10 11 12 13 14 15 16
000
FTUS43 KIND 240900 AAA
TAFLAF
TAF AMD
KLAF 240942Z 2410/2506 00000KT P6SM OVC040
      TEMPO 2410/2413 BKN030
     FM241500 22005KT P6SM BKN040
     FM241700 22005KT P6SM BKN250
     FM242300 VRB02KT P6SM BKN250
      AMD LTD TO CLD VIS AND WIND TIL 241300=

USA.gov is the U.S. government's official web portal to all federal, state and local government web resources and services.